createdAt,value
2019-06-27T00:00:22.471Z,90.70
2019-06-27T00:00:53.666Z,90.60
2019-06-27T00:01:25.322Z,90.60
2019-06-27T00:01:56.707Z,90.60
2019-06-27T00:02:27.882Z,90.60
2019-06-27T00:02:59.347Z,90.60
2019-06-27T00:03:30.540Z,90.70
2019-06-27T00:04:01.740Z,90.70
2019-06-27T00:04:33.023Z,90.70
2019-06-27T00:05:04.497Z,90.70
2019-06-27T00:05:35.686Z,90.70
2019-06-27T00:06:06.863Z,90.60
2019-06-27T00:06:38.040Z,90.60
2019-06-27T00:07:09.223Z,90.50
2019-06-27T00:07:40.743Z,90.50
2019-06-27T00:08:12.295Z,90.50
2019-06-27T00:08:43.484Z,90.40
2019-06-27T00:09:14.955Z,90.40
2019-06-27T00:09:46.259Z,90.30
2019-06-27T00:10:17.455Z,90.30
2019-06-27T00:10:48.650Z,90.30
2019-06-27T00:11:19.900Z,90.30
2019-06-27T00:11:51.132Z,90.30
2019-06-27T00:12:22.320Z,90.30
2019-06-27T00:12:53.780Z,90.30
2019-06-27T00:13:24.964Z,90.30
2019-06-27T00:13:56.145Z,90.20
2019-06-27T00:14:27.369Z,90.20
2019-06-27T00:14:58.597Z,90.20
2019-06-27T00:15:29.766Z,90.20
2019-06-27T00:16:00.951Z,90.20
2019-06-27T00:16:32.145Z,90.20
2019-06-27T00:17:03.641Z,90.20
2019-06-27T00:17:34.821Z,90.20
2019-06-27T00:18:06.317Z,90.20
2019-06-27T00:18:37.495Z,90.30
2019-06-27T00:19:08.987Z,90.30
2019-06-27T00:19:40.161Z,90.30
2019-06-27T00:20:11.355Z,90.30
2019-06-27T00:20:42.605Z,90.40
2019-06-27T00:21:13.814Z,90.40
2019-06-27T00:21:45.350Z,90.40
2019-06-27T00:22:16.890Z,90.50
2019-06-27T00:22:48.077Z,90.50
2019-06-27T00:23:19.585Z,90.50
2019-06-27T00:23:50.766Z,90.60
2019-06-27T00:24:21.950Z,90.60
2019-06-27T00:24:53.223Z,90.60
2019-06-27T00:25:24.803Z,90.60
2019-06-27T00:25:55.978Z,90.70
2019-06-27T00:26:27.202Z,90.70
2019-06-27T00:26:58.378Z,90.70
2019-06-27T00:27:29.947Z,90.60
2019-06-27T00:28:01.207Z,90.70
2019-06-27T00:28:32.648Z,90.60
2019-06-27T00:29:03.843Z,90.70
2019-06-27T00:29:35.027Z,90.70
2019-06-27T00:30:06.234Z,90.70
2019-06-27T00:30:37.497Z,90.70
2019-06-27T00:31:08.679Z,90.70
2019-06-27T00:31:39.878Z,90.70
2019-06-27T00:32:11.073Z,90.70
2019-06-27T00:32:42.316Z,90.70
2019-06-27T00:33:13.503Z,90.70
2019-06-27T00:33:44.700Z,90.70
2019-06-27T00:34:15.980Z,90.70
2019-06-27T00:34:47.237Z,90.70
2019-06-27T00:35:18.444Z,90.70
2019-06-27T00:35:49.692Z,90.70
2019-06-27T00:36:20.867Z,90.70
2019-06-27T00:36:52.040Z,90.70
2019-06-27T00:37:23.225Z,90.70
2019-06-27T00:37:54.395Z,90.70
2019-06-27T00:38:25.914Z,90.80
2019-06-27T00:38:57.156Z,90.70
2019-06-27T00:39:28.337Z,90.80
2019-06-27T00:39:59.520Z,90.80
2019-06-27T00:40:31.073Z,90.80
2019-06-27T00:41:02.258Z,90.80
2019-06-27T00:41:33.428Z,90.80
2019-06-27T00:42:04.952Z,90.80
2019-06-27T00:42:36.135Z,90.80
2019-06-27T00:43:07.321Z,90.80
2019-06-27T00:43:38.557Z,90.80
2019-06-27T00:44:10.081Z,90.80
2019-06-27T00:44:41.328Z,90.80
2019-06-27T00:45:12.956Z,90.80
2019-06-27T00:45:44.233Z,90.80
2019-06-27T00:46:15.417Z,90.80
2019-06-27T00:46:46.613Z,90.80
2019-06-27T00:47:17.792Z,90.80
2019-06-27T00:47:49.321Z,90.70
2019-06-27T00:48:20.611Z,90.70
2019-06-27T00:48:52.194Z,90.70
2019-06-27T00:49:23.400Z,90.70
2019-06-27T00:49:54.861Z,90.70
2019-06-27T00:50:26.044Z,90.70
2019-06-27T00:50:57.238Z,91.00
2019-06-27T00:51:28.504Z,90.50
2019-06-27T00:51:59.727Z,90.50
2019-06-27T00:52:30.908Z,90.40
2019-06-27T00:53:02.386Z,90.40
2019-06-27T00:53:33.908Z,90.40
2019-06-27T00:54:05.129Z,90.40
2019-06-27T00:54:36.346Z,90.40
2019-06-27T00:55:07.839Z,90.30
2019-06-27T00:55:39.307Z,90.30
2019-06-27T00:56:10.493Z,90.30
2019-06-27T00:56:41.674Z,90.30
2019-06-27T00:57:14.483Z,90.30
2019-06-27T00:57:45.766Z,90.50
2019-06-27T00:58:16.991Z,90.30
2019-06-27T00:58:48.210Z,90.30
2019-06-27T00:59:19.716Z,90.40
2019-06-27T00:59:50.922Z,90.70
2019-06-27T01:00:22.531Z,90.40
2019-06-27T01:00:53.716Z,90.40
2019-06-27T01:01:24.899Z,90.40
2019-06-27T01:01:56.383Z,90.50
2019-06-27T01:02:27.567Z,90.80
2019-06-27T01:02:59.015Z,90.50
2019-06-27T01:03:30.191Z,90.60
2019-06-27T01:04:01.410Z,90.60
2019-06-27T01:04:32.982Z,90.60
2019-06-27T01:05:04.163Z,90.60
2019-06-27T01:05:35.336Z,90.70
2019-06-27T01:06:06.539Z,90.70
2019-06-27T01:06:37.720Z,90.70
2019-06-27T01:07:08.916Z,90.70
2019-06-27T01:07:40.090Z,90.70
2019-06-27T01:08:11.269Z,90.70
2019-06-27T01:08:42.462Z,90.70
2019-06-27T01:09:13.640Z,90.70
2019-06-27T01:09:44.896Z,90.70
2019-06-27T01:10:16.069Z,90.80
2019-06-27T01:10:47.276Z,90.80
2019-06-27T01:11:18.467Z,90.70
2019-06-27T01:11:49.665Z,90.70
2019-06-27T01:12:20.948Z,90.70
2019-06-27T01:12:52.177Z,90.80
2019-06-27T01:13:23.374Z,90.70
2019-06-27T01:13:54.629Z,90.70
2019-06-27T01:14:25.812Z,90.80
2019-06-27T01:14:56.991Z,90.80
2019-06-27T01:15:28.526Z,90.80
2019-06-27T01:15:59.711Z,90.80
2019-06-27T01:16:31.237Z,90.80
2019-06-27T01:17:02.461Z,90.80
2019-06-27T01:17:33.654Z,91.20
2019-06-27T01:18:04.906Z,90.80
2019-06-27T01:18:36.486Z,90.80
2019-06-27T01:19:07.694Z,90.80
2019-06-27T01:19:38.923Z,91.20
2019-06-27T01:20:10.115Z,90.80
2019-06-27T01:20:41.586Z,90.80
2019-06-27T01:21:12.773Z,90.80
2019-06-27T01:21:43.959Z,90.80
2019-06-27T01:22:15.143Z,91.20
2019-06-27T01:22:46.335Z,90.80
2019-06-27T01:23:17.588Z,90.80
2019-06-27T01:23:48.762Z,90.80
2019-06-27T01:24:19.942Z,90.80
2019-06-27T01:24:51.127Z,90.80
2019-06-27T01:25:22.311Z,91.20
2019-06-27T01:25:53.491Z,90.80
2019-06-27T01:26:25.051Z,90.80
2019-06-27T01:26:57.459Z,90.80
2019-06-27T01:27:30.197Z,90.80
2019-06-27T01:28:01.824Z,90.80
2019-06-27T01:28:33.251Z,90.80
2019-06-27T01:29:04.874Z,90.80
2019-06-27T01:29:36.060Z,90.80
2019-06-27T01:30:07.244Z,90.80
2019-06-27T01:30:38.420Z,90.70
2019-06-27T01:31:09.602Z,90.70
2019-06-27T01:31:40.927Z,90.70
2019-06-27T01:32:12.100Z,90.70
2019-06-27T01:32:43.300Z,90.60
2019-06-27T01:33:14.736Z,90.60
2019-06-27T01:33:45.911Z,90.60
2019-06-27T01:34:17.101Z,90.60
2019-06-27T01:34:48.536Z,90.50
2019-06-27T01:35:19.712Z,90.60
2019-06-27T01:35:50.900Z,90.50
2019-06-27T01:36:22.078Z,90.50
2019-06-27T01:36:53.355Z,90.50
2019-06-27T01:37:24.587Z,90.50
2019-06-27T01:37:55.786Z,90.40
2019-06-27T01:38:26.961Z,90.40
2019-06-27T01:38:58.407Z,90.40
2019-06-27T01:39:29.831Z,90.40
2019-06-27T01:40:01.045Z,90.40
2019-06-27T01:40:32.521Z,90.40
2019-06-27T01:41:03.977Z,90.40
2019-06-27T01:41:35.525Z,90.50
2019-06-27T01:42:06.718Z,90.50
2019-06-27T01:42:37.886Z,90.50
2019-06-27T01:43:09.063Z,90.50
2019-06-27T01:43:40.247Z,90.50
2019-06-27T01:44:11.429Z,90.50
2019-06-27T01:44:42.606Z,90.60
2019-06-27T01:45:13.790Z,90.60
2019-06-27T01:45:45.230Z,90.60
2019-06-27T01:46:16.402Z,90.60
2019-06-27T01:46:47.614Z,90.60
2019-06-27T01:47:18.797Z,90.70
2019-06-27T01:47:50.234Z,90.70
2019-06-27T01:48:21.422Z,90.70
2019-06-27T01:48:52.603Z,90.70
2019-06-27T01:49:23.798Z,90.70
2019-06-27T01:49:55.011Z,90.80
2019-06-27T01:50:26.245Z,90.70
2019-06-27T01:50:57.442Z,90.70
2019-06-27T01:51:28.623Z,90.70
2019-06-27T01:52:00.116Z,90.70
2019-06-27T01:52:31.294Z,90.70
2019-06-27T01:53:02.483Z,90.70
2019-06-27T01:53:33.667Z,90.70
2019-06-27T01:54:04.927Z,90.70
2019-06-27T01:54:36.114Z,90.70
2019-06-27T01:55:07.299Z,90.80
2019-06-27T01:55:38.484Z,90.70
2019-06-27T01:56:09.679Z,90.70
2019-06-27T01:56:40.867Z,90.70
2019-06-27T01:57:12.056Z,90.70
2019-06-27T01:57:47.030Z,91.00
2019-06-27T01:58:16.211Z,90.70
2019-06-27T01:58:47.391Z,90.70
2019-06-27T01:59:18.905Z,90.80
2019-06-27T01:59:50.084Z,90.80
2019-06-27T02:00:21.267Z,90.80
2019-06-27T02:00:52.460Z,90.80
2019-06-27T02:01:23.651Z,90.80
2019-06-27T02:01:54.852Z,90.70
2019-06-27T02:02:26.036Z,90.80
2019-06-27T02:02:57.228Z,90.80
2019-06-27T02:03:28.405Z,90.80
2019-06-27T02:03:59.584Z,90.80
2019-06-27T02:04:30.765Z,90.80
2019-06-27T02:05:01.945Z,90.80
2019-06-27T02:05:33.121Z,90.80
2019-06-27T02:06:04.308Z,90.80
2019-06-27T02:06:35.845Z,90.80
2019-06-27T02:07:07.052Z,90.80
2019-06-27T02:07:38.376Z,90.80
2019-06-27T02:08:09.565Z,90.80
2019-06-27T02:08:40.774Z,90.80
2019-06-27T02:09:12.017Z,90.80
2019-06-27T02:09:43.200Z,90.80
2019-06-27T02:10:14.453Z,90.80
2019-06-27T02:10:45.940Z,90.80
2019-06-27T02:11:17.397Z,90.80
2019-06-27T02:11:48.577Z,90.80
2019-06-27T02:12:20.040Z,90.80
2019-06-27T02:12:51.274Z,90.70
2019-06-27T02:13:22.464Z,90.80
2019-06-27T02:13:53.642Z,90.80
2019-06-27T02:14:24.821Z,90.80
2019-06-27T02:14:56.002Z,90.80
2019-06-27T02:15:27.528Z,90.80
2019-06-27T02:15:59.078Z,90.70
2019-06-27T02:16:30.318Z,90.60
2019-06-27T02:17:01.503Z,90.70
2019-06-27T02:17:32.708Z,90.60
2019-06-27T02:18:03.892Z,90.70
2019-06-27T02:18:35.422Z,90.60
2019-06-27T02:19:06.607Z,90.60
2019-06-27T02:19:37.802Z,90.60
2019-06-27T02:20:08.979Z,90.50
2019-06-27T02:20:40.459Z,90.50
2019-06-27T02:21:11.642Z,90.50
2019-06-27T02:21:42.828Z,90.60
2019-06-27T02:22:14.088Z,90.60
2019-06-27T02:22:45.295Z,90.60
2019-06-27T02:23:16.482Z,90.60
2019-06-27T02:23:47.660Z,90.60
2019-06-27T02:24:18.851Z,90.60
2019-06-27T02:24:50.031Z,90.60
2019-06-27T02:25:21.235Z,90.60
2019-06-27T02:25:52.413Z,90.60
2019-06-27T02:26:23.617Z,90.60
2019-06-27T02:26:54.853Z,90.60
2019-06-27T02:27:26.036Z,90.60
2019-06-27T02:28:03.624Z,90.70
2019-06-27T02:28:30.512Z,91.00
2019-06-27T02:29:01.706Z,90.70
2019-06-27T02:29:32.898Z,90.70
2019-06-27T02:30:04.097Z,90.70
2019-06-27T02:30:35.715Z,90.70
2019-06-27T02:31:06.974Z,90.70
2019-06-27T02:31:38.167Z,91.10
2019-06-27T02:32:09.721Z,90.70
2019-06-27T02:32:41.253Z,90.70
2019-06-27T02:33:12.442Z,90.70
2019-06-27T02:33:44.025Z,90.70
2019-06-27T02:34:15.566Z,90.70
2019-06-27T02:34:46.767Z,90.70
2019-06-27T02:35:18.062Z,90.70
2019-06-27T02:35:49.239Z,90.70
2019-06-27T02:36:20.487Z,90.70
2019-06-27T02:36:51.691Z,90.70
2019-06-27T02:37:22.928Z,90.70
2019-06-27T02:37:54.166Z,90.70
2019-06-27T02:38:25.346Z,90.70
2019-06-27T02:38:56.533Z,91.10
2019-06-27T02:39:27.719Z,90.70
2019-06-27T02:39:58.907Z,90.70
2019-06-27T02:40:30.166Z,90.70
2019-06-27T02:41:01.386Z,90.70
2019-06-27T02:41:32.636Z,90.70
2019-06-27T02:42:03.819Z,90.70
2019-06-27T02:42:35.015Z,90.70
2019-06-27T02:43:06.207Z,90.80
2019-06-27T02:43:37.411Z,90.70
2019-06-27T02:44:08.590Z,90.70
2019-06-27T02:44:39.852Z,90.70
2019-06-27T02:45:11.373Z,90.70
2019-06-27T02:45:43.091Z,90.70
2019-06-27T02:46:14.279Z,90.70
2019-06-27T02:46:45.760Z,90.70
2019-06-27T02:47:17.019Z,90.70
2019-06-27T02:47:48.211Z,90.70
2019-06-27T02:48:19.507Z,90.70
2019-06-27T02:48:51.023Z,90.80
2019-06-27T02:49:22.212Z,90.70
2019-06-27T02:49:53.392Z,90.70
2019-06-27T02:50:24.731Z,90.80
2019-06-27T02:50:55.908Z,90.70
2019-06-27T02:51:27.206Z,90.70
2019-06-27T02:51:58.803Z,90.70
2019-06-27T02:52:30.385Z,90.70
2019-06-27T02:53:01.610Z,90.70
2019-06-27T02:53:32.790Z,90.70
2019-06-27T02:54:03.974Z,90.70
2019-06-27T02:54:35.200Z,90.70
2019-06-27T02:55:06.822Z,90.70
2019-06-27T02:55:38.064Z,90.70
2019-06-27T02:56:09.505Z,90.80
2019-06-27T02:56:40.697Z,90.70
2019-06-27T02:57:12.141Z,90.70
2019-06-27T02:57:43.327Z,90.70
2019-06-27T02:58:29.679Z,90.70
2019-06-27T02:58:47.876Z,90.70
2019-06-27T02:59:19.082Z,90.60
2019-06-27T02:59:50.261Z,90.60
2019-06-27T03:00:21.445Z,90.60
2019-06-27T03:00:52.671Z,90.50
2019-06-27T03:01:23.890Z,90.50
2019-06-27T03:01:55.072Z,90.60
2019-06-27T03:02:26.331Z,90.50
2019-06-27T03:02:57.519Z,90.60
2019-06-27T03:03:28.709Z,90.50
2019-06-27T03:04:00.216Z,90.50
2019-06-27T03:04:31.462Z,90.60
2019-06-27T03:05:02.657Z,90.50
2019-06-27T03:05:33.838Z,90.50
2019-06-27T03:06:05.018Z,90.60
2019-06-27T03:06:36.225Z,90.60
2019-06-27T03:07:07.479Z,90.60
2019-06-27T03:07:38.894Z,90.50
2019-06-27T03:08:10.122Z,90.50
2019-06-27T03:08:41.324Z,90.60
2019-06-27T03:09:12.525Z,90.60
2019-06-27T03:09:43.710Z,90.60
2019-06-27T03:10:14.929Z,90.60
2019-06-27T03:10:46.127Z,90.60
2019-06-27T03:11:17.403Z,90.60
2019-06-27T03:11:48.587Z,90.60
2019-06-27T03:12:19.775Z,90.60
2019-06-27T03:12:51.263Z,90.60
2019-06-27T03:13:22.466Z,90.60
2019-06-27T03:13:53.661Z,90.60
2019-06-27T03:14:24.851Z,90.60
2019-06-27T03:14:56.127Z,90.60
2019-06-27T03:15:27.644Z,90.60
2019-06-27T03:15:58.889Z,90.60
2019-06-27T03:16:30.088Z,90.60
2019-06-27T03:17:01.262Z,90.60
2019-06-27T03:17:32.547Z,90.60
2019-06-27T03:18:03.824Z,90.60
2019-06-27T03:18:35.080Z,90.90
2019-06-27T03:19:06.265Z,90.60
2019-06-27T03:19:37.523Z,90.60
2019-06-27T03:20:08.709Z,90.30
2019-06-27T03:20:39.889Z,90.60
2019-06-27T03:21:11.093Z,90.60
2019-06-27T03:21:42.321Z,90.60
2019-06-27T03:22:13.499Z,90.60
2019-06-27T03:22:44.679Z,90.60
2019-06-27T03:23:15.865Z,90.60
2019-06-27T03:23:47.379Z,90.60
2019-06-27T03:24:18.559Z,90.60
2019-06-27T03:24:49.816Z,90.60
2019-06-27T03:25:21.006Z,90.60
2019-06-27T03:25:52.200Z,90.60
2019-06-27T03:26:23.389Z,90.60
2019-06-27T03:26:54.979Z,90.60
2019-06-27T03:27:26.148Z,90.60
2019-06-27T03:27:57.333Z,90.60
2019-06-27T03:28:49.717Z,90.60
2019-06-27T03:29:01.426Z,90.60
2019-06-27T03:29:32.614Z,90.60
2019-06-27T03:30:03.785Z,90.60
2019-06-27T03:30:35.239Z,90.60
2019-06-27T03:31:06.516Z,90.50
2019-06-27T03:31:37.696Z,90.60
2019-06-27T03:32:08.886Z,90.60
2019-06-27T03:32:40.177Z,90.60
2019-06-27T03:33:11.410Z,90.60
2019-06-27T03:33:42.636Z,90.60
2019-06-27T03:34:13.829Z,90.60
2019-06-27T03:34:45.422Z,90.60
2019-06-27T03:35:16.750Z,90.50
2019-06-27T03:35:47.998Z,90.50
2019-06-27T03:36:19.263Z,90.90
2019-06-27T03:36:50.488Z,90.60
2019-06-27T03:37:21.767Z,90.60
2019-06-27T03:37:52.952Z,90.60
2019-06-27T03:38:24.159Z,90.60
2019-06-27T03:38:55.424Z,90.60
2019-06-27T03:39:26.678Z,90.60
2019-06-27T03:39:57.859Z,90.60
2019-06-27T03:40:29.342Z,90.60
2019-06-27T03:41:00.888Z,90.60
2019-06-27T03:41:32.075Z,90.60
2019-06-27T03:42:03.562Z,90.60
2019-06-27T03:42:34.828Z,90.60
2019-06-27T03:43:06.144Z,90.60
2019-06-27T03:43:37.328Z,90.90
2019-06-27T03:44:08.532Z,90.60
2019-06-27T03:44:39.721Z,90.80
2019-06-27T03:45:15.357Z,90.60
2019-06-27T03:45:43.830Z,90.60
2019-06-27T03:46:15.012Z,90.60
2019-06-27T03:46:46.203Z,90.60
2019-06-27T03:47:17.405Z,90.60
2019-06-27T03:47:48.655Z,90.60
2019-06-27T03:48:19.837Z,90.50
2019-06-27T03:48:51.024Z,90.50
2019-06-27T03:49:22.300Z,90.50
2019-06-27T03:49:53.486Z,90.50
2019-06-27T03:50:24.665Z,90.50
2019-06-27T03:50:56.386Z,90.50
2019-06-27T03:51:27.920Z,90.50
2019-06-27T03:51:59.113Z,90.60
2019-06-27T03:52:30.302Z,90.60
2019-06-27T03:53:01.498Z,90.60
2019-06-27T03:53:32.697Z,90.50
2019-06-27T03:54:03.913Z,90.60
2019-06-27T03:54:35.136Z,90.60
2019-06-27T03:55:06.332Z,90.60
2019-06-27T03:55:37.505Z,90.60
2019-06-27T03:56:08.692Z,90.60
2019-06-27T03:56:40.252Z,90.50
2019-06-27T03:57:11.430Z,90.60
2019-06-27T03:57:44.953Z,90.50
2019-06-27T03:58:15.522Z,90.60
2019-06-27T03:58:46.983Z,90.50
2019-06-27T03:59:18.202Z,90.60
2019-06-27T03:59:49.462Z,90.50
2019-06-27T04:00:20.647Z,90.50
2019-06-27T04:00:51.831Z,90.50
2019-06-27T04:01:23.040Z,90.50
2019-06-27T04:01:54.244Z,90.50
2019-06-27T04:02:25.498Z,90.50
2019-06-27T04:02:56.690Z,90.50
2019-06-27T04:03:27.862Z,90.50
2019-06-27T04:03:59.043Z,90.50
2019-06-27T04:04:30.570Z,90.50
2019-06-27T04:05:01.769Z,90.50
2019-06-27T04:05:33.008Z,90.50
2019-06-27T04:06:04.199Z,90.50
2019-06-27T04:06:35.387Z,90.50
2019-06-27T04:07:06.630Z,90.50
2019-06-27T04:07:37.889Z,90.50
2019-06-27T04:08:09.091Z,90.50
2019-06-27T04:08:40.297Z,90.50
2019-06-27T04:09:11.855Z,90.50
2019-06-27T04:09:43.321Z,90.50
2019-06-27T04:10:17.203Z,90.50
2019-06-27T04:10:47.468Z,90.50
2019-06-27T04:11:18.718Z,90.50
2019-06-27T04:11:49.895Z,90.50
2019-06-27T04:12:21.097Z,90.50
2019-06-27T04:12:52.272Z,90.50
2019-06-27T04:13:23.495Z,90.50
2019-06-27T04:13:54.699Z,90.50
2019-06-27T04:14:25.881Z,90.50
2019-06-27T04:14:57.072Z,90.50
2019-06-27T04:15:28.549Z,90.50
2019-06-27T04:15:59.729Z,90.50
2019-06-27T04:16:30.905Z,90.50
2019-06-27T04:17:02.090Z,90.50
2019-06-27T04:17:33.277Z,90.50
2019-06-27T04:18:04.458Z,90.50
2019-06-27T04:18:35.645Z,90.50
2019-06-27T04:19:06.821Z,90.60
2019-06-27T04:19:38.001Z,90.60
2019-06-27T04:20:09.282Z,90.60
2019-06-27T04:20:40.469Z,90.60
2019-06-27T04:21:11.926Z,90.60
2019-06-27T04:21:43.107Z,90.60
2019-06-27T04:22:17.379Z,90.60
2019-06-27T04:22:47.174Z,90.60
2019-06-27T04:23:18.353Z,90.60
2019-06-27T04:23:49.529Z,90.50
2019-06-27T04:24:21.022Z,90.60
2019-06-27T04:24:52.234Z,90.50
2019-06-27T04:25:23.621Z,90.60
2019-06-27T04:25:54.809Z,90.60
2019-06-27T04:26:26.001Z,90.60
2019-06-27T04:26:57.183Z,90.60
2019-06-27T04:27:28.371Z,90.60
2019-06-27T04:28:00.241Z,90.50
2019-06-27T04:28:32.025Z,90.60
2019-06-27T04:29:03.205Z,90.60
2019-06-27T04:29:35.008Z,90.60
2019-06-27T04:30:06.368Z,90.60
2019-06-27T04:30:37.551Z,90.60
2019-06-27T04:31:08.844Z,90.60
2019-06-27T04:31:40.058Z,90.50
2019-06-27T04:32:11.615Z,90.50
2019-06-27T04:32:42.878Z,90.50
2019-06-27T04:33:14.114Z,90.50
2019-06-27T04:33:45.295Z,90.50
2019-06-27T04:34:19.891Z,90.60
2019-06-27T04:34:49.472Z,90.60
2019-06-27T04:35:20.735Z,90.50
2019-06-27T04:35:51.919Z,90.60
2019-06-27T04:36:23.120Z,90.60
2019-06-27T04:36:54.736Z,90.50
2019-06-27T04:37:26.038Z,90.60
2019-06-27T04:37:57.251Z,90.60
2019-06-27T04:38:28.460Z,90.50
2019-06-27T04:38:59.640Z,90.50
2019-06-27T04:39:30.828Z,90.50
2019-06-27T04:40:02.118Z,90.60
2019-06-27T04:40:33.372Z,90.50
2019-06-27T04:41:04.888Z,90.50
2019-06-27T04:41:36.425Z,90.50
2019-06-27T04:42:07.964Z,90.50
2019-06-27T04:42:39.149Z,90.50
2019-06-27T04:43:10.405Z,90.50
2019-06-27T04:43:41.589Z,90.50
2019-06-27T04:44:12.782Z,90.80
2019-06-27T04:44:44.338Z,90.50
2019-06-27T04:45:15.533Z,90.50
2019-06-27T04:45:46.729Z,90.50
2019-06-27T04:46:17.981Z,90.40
2019-06-27T04:46:49.218Z,90.40
2019-06-27T04:47:20.401Z,90.50
2019-06-27T04:47:51.650Z,90.40
2019-06-27T04:48:22.834Z,90.40
2019-06-27T04:48:54.017Z,90.40
2019-06-27T04:49:25.207Z,90.50
2019-06-27T04:49:56.385Z,90.40
2019-06-27T04:50:27.578Z,90.50
2019-06-27T04:50:58.768Z,90.40
2019-06-27T04:51:29.976Z,90.50
2019-06-27T04:52:01.213Z,90.40
2019-06-27T04:52:32.398Z,90.40
2019-06-27T04:53:03.696Z,90.40
2019-06-27T04:53:34.873Z,90.50
2019-06-27T04:54:06.054Z,90.40
2019-06-27T04:54:37.266Z,90.50
2019-06-27T04:55:08.465Z,90.40
2019-06-27T04:55:39.733Z,90.50
2019-06-27T04:56:10.967Z,90.40
2019-06-27T04:56:42.483Z,90.50
2019-06-27T04:57:13.659Z,90.50
2019-06-27T04:57:44.847Z,90.40
2019-06-27T04:58:16.388Z,90.40
2019-06-27T04:58:47.558Z,90.50
2019-06-27T04:59:18.751Z,90.40
2019-06-27T04:59:53.834Z,90.40
2019-06-27T05:00:22.948Z,90.40
2019-06-27T05:00:54.136Z,90.50
2019-06-27T05:01:25.325Z,90.50
2019-06-27T05:01:56.512Z,90.40
2019-06-27T05:02:30.555Z,90.50
2019-06-27T05:03:00.631Z,90.50
2019-06-27T05:03:31.896Z,90.50
2019-06-27T05:04:03.087Z,90.80
2019-06-27T05:04:34.268Z,90.40
2019-06-27T05:05:05.529Z,90.40
2019-06-27T05:05:36.720Z,90.40
2019-06-27T05:06:07.935Z,90.40
2019-06-27T05:06:39.161Z,90.40
2019-06-27T05:07:10.341Z,90.40
2019-06-27T05:07:42.348Z,90.70
2019-06-27T05:08:14.837Z,90.40
2019-06-27T05:08:46.411Z,90.30
2019-06-27T05:09:17.605Z,90.40
2019-06-27T05:09:48.846Z,90.30
2019-06-27T05:10:20.185Z,90.30
2019-06-27T05:10:51.384Z,90.30
2019-06-27T05:11:22.575Z,90.30
2019-06-27T05:11:54.081Z,90.30
2019-06-27T05:12:25.337Z,90.60
2019-06-27T05:12:56.521Z,90.30
2019-06-27T05:13:27.711Z,90.30
2019-06-27T05:13:58.893Z,90.30
2019-06-27T05:14:32.550Z,90.30
2019-06-27T05:15:03.013Z,90.30
2019-06-27T05:15:34.234Z,90.30
2019-06-27T05:16:05.490Z,90.30
2019-06-27T05:16:36.737Z,90.40
2019-06-27T05:17:07.918Z,90.30
2019-06-27T05:17:39.105Z,90.30
2019-06-27T05:18:10.293Z,90.30
2019-06-27T05:18:41.474Z,90.30
2019-06-27T05:19:12.661Z,90.30
2019-06-27T05:19:43.838Z,90.30
2019-06-27T05:20:15.031Z,90.30
2019-06-27T05:20:46.229Z,90.30
2019-06-27T05:21:17.423Z,90.30
2019-06-27T05:21:48.905Z,90.30
2019-06-27T05:22:20.078Z,90.30
2019-06-27T05:22:51.259Z,90.30
2019-06-27T05:23:22.822Z,90.30
2019-06-27T05:23:54.343Z,90.30
2019-06-27T05:24:25.529Z,90.30
2019-06-27T05:24:56.708Z,90.30
2019-06-27T05:25:29.698Z,90.30
2019-06-27T05:26:00.880Z,90.30
2019-06-27T05:26:32.100Z,90.30
2019-06-27T05:27:03.291Z,90.30
2019-06-27T05:27:34.755Z,90.30
2019-06-27T05:28:05.942Z,90.30
2019-06-27T05:28:37.143Z,90.30
2019-06-27T05:29:08.336Z,90.30
2019-06-27T05:29:39.786Z,90.70
2019-06-27T05:30:11.386Z,90.30
2019-06-27T05:30:42.569Z,90.30
2019-06-27T05:31:13.843Z,90.30
2019-06-27T05:31:45.019Z,90.30
2019-06-27T05:32:16.201Z,90.30
2019-06-27T05:32:47.379Z,90.20
2019-06-27T05:33:18.580Z,90.20
2019-06-27T05:33:49.764Z,90.20
2019-06-27T05:34:20.948Z,90.30
2019-06-27T05:34:52.125Z,90.30
2019-06-27T05:35:23.308Z,90.20
2019-06-27T05:35:54.584Z,90.20
2019-06-27T05:36:25.775Z,90.20
2019-06-27T05:36:56.950Z,90.20
2019-06-27T05:37:28.128Z,90.20
2019-06-27T05:37:59.320Z,90.20
2019-06-27T05:38:30.496Z,90.20
2019-06-27T05:39:01.735Z,90.20
2019-06-27T05:39:32.940Z,90.20
2019-06-27T05:40:04.124Z,90.20
2019-06-27T05:40:35.301Z,90.20
2019-06-27T05:41:06.481Z,90.20
2019-06-27T05:41:37.660Z,90.20
2019-06-27T05:42:08.838Z,90.20
2019-06-27T05:42:40.014Z,90.20
2019-06-27T05:43:11.477Z,90.20
2019-06-27T05:43:42.721Z,90.30
2019-06-27T05:44:13.991Z,90.20
2019-06-27T05:44:45.160Z,90.20
2019-06-27T05:45:16.400Z,90.30
2019-06-27T05:45:47.601Z,90.20
2019-06-27T05:46:19.086Z,90.20
2019-06-27T05:46:50.273Z,90.60
2019-06-27T05:47:21.470Z,90.20
2019-06-27T05:47:53.182Z,90.20
2019-06-27T05:48:24.346Z,90.20
2019-06-27T05:48:55.856Z,90.20
2019-06-27T05:49:27.286Z,90.20
2019-06-27T05:49:58.472Z,90.10
2019-06-27T05:50:29.661Z,90.10
2019-06-27T05:51:00.834Z,90.10
2019-06-27T05:51:32.034Z,90.20
2019-06-27T05:52:03.214Z,90.10
2019-06-27T05:52:34.403Z,90.10
2019-06-27T05:53:05.619Z,90.10
2019-06-27T05:53:37.243Z,90.10
2019-06-27T05:54:08.409Z,90.10
2019-06-27T05:54:39.620Z,90.10
2019-06-27T05:55:10.799Z,90.00
2019-06-27T05:55:41.970Z,90.00
2019-06-27T05:56:13.167Z,90.10
2019-06-27T05:56:44.356Z,90.10
2019-06-27T05:57:15.525Z,90.10
2019-06-27T05:57:46.711Z,90.10
2019-06-27T05:58:17.877Z,90.10
2019-06-27T05:58:51.869Z,90.10
2019-06-27T05:59:21.973Z,90.00
2019-06-27T05:59:53.228Z,90.10
2019-06-27T06:00:28.649Z,90.10
2019-06-27T06:00:57.284Z,90.10
2019-06-27T06:01:28.478Z,90.00
2019-06-27T06:01:59.666Z,90.00
2019-06-27T06:02:30.906Z,90.10
2019-06-27T06:03:02.430Z,90.00
2019-06-27T06:03:33.761Z,90.00
2019-06-27T06:04:04.943Z,90.00
2019-06-27T06:04:36.401Z,90.00
2019-06-27T06:05:07.592Z,90.00
2019-06-27T06:05:38.773Z,90.00
2019-06-27T06:06:09.979Z,90.00
2019-06-27T06:06:41.489Z,90.00
2019-06-27T06:07:12.714Z,90.00
2019-06-27T06:07:44.028Z,90.00
2019-06-27T06:08:15.199Z,90.00
2019-06-27T06:08:46.644Z,90.00
2019-06-27T06:09:17.813Z,90.00
2019-06-27T06:09:48.981Z,90.00
2019-06-27T06:10:20.161Z,90.00
2019-06-27T06:10:51.341Z,90.00
2019-06-27T06:11:22.626Z,90.00
2019-06-27T06:11:53.802Z,90.00
2019-06-27T06:12:24.982Z,90.00
2019-06-27T06:12:56.544Z,90.00
2019-06-27T06:13:28.066Z,90.00
2019-06-27T06:13:59.293Z,90.00
2019-06-27T06:14:30.532Z,90.00
2019-06-27T06:15:01.779Z,90.00
2019-06-27T06:15:33.302Z,90.00
2019-06-27T06:16:04.484Z,90.30
2019-06-27T06:16:35.970Z,90.00
2019-06-27T06:17:07.174Z,90.00
2019-06-27T06:17:38.368Z,90.00
2019-06-27T06:18:09.534Z,90.00
2019-06-27T06:18:40.732Z,90.00
2019-06-27T06:19:12.385Z,90.00
2019-06-27T06:19:43.566Z,90.00
2019-06-27T06:20:14.754Z,90.00
2019-06-27T06:20:45.943Z,90.00
2019-06-27T06:21:17.515Z,89.90
2019-06-27T06:21:48.763Z,90.00
2019-06-27T06:22:19.956Z,90.00
2019-06-27T06:22:51.467Z,90.00
2019-06-27T06:23:22.656Z,90.00
2019-06-27T06:23:54.148Z,90.00
2019-06-27T06:24:25.313Z,89.90
2019-06-27T06:24:58.253Z,89.90
2019-06-27T06:25:29.408Z,89.90
2019-06-27T06:26:00.624Z,90.00
2019-06-27T06:26:31.834Z,90.00
2019-06-27T06:27:03.519Z,90.00
2019-06-27T06:27:34.803Z,90.00
2019-06-27T06:28:06.255Z,90.00
2019-06-27T06:28:37.508Z,90.00
2019-06-27T06:29:08.715Z,90.00
2019-06-27T06:29:39.896Z,90.00
2019-06-27T06:30:11.107Z,90.00
2019-06-27T06:30:44.988Z,89.90
2019-06-27T06:31:15.447Z,89.90
2019-06-27T06:31:49.265Z,89.80
2019-06-27T06:32:19.527Z,89.90
2019-06-27T06:32:50.703Z,89.90
2019-06-27T06:33:21.885Z,90.20
2019-06-27T06:33:53.061Z,89.90
2019-06-27T06:34:24.246Z,89.90
2019-06-27T06:34:55.758Z,89.70
2019-06-27T06:35:26.940Z,89.70
2019-06-27T06:35:58.117Z,89.80
2019-06-27T06:36:29.297Z,89.70
2019-06-27T06:37:00.635Z,89.70
2019-06-27T06:37:32.334Z,89.80
2019-06-27T06:38:03.516Z,89.90
2019-06-27T06:38:34.698Z,89.80
2019-06-27T06:39:06.230Z,89.80
2019-06-27T06:39:37.409Z,89.70
2019-06-27T06:40:08.586Z,90.20
2019-06-27T06:40:39.765Z,89.90
2019-06-27T06:41:10.947Z,89.90
2019-06-27T06:41:42.129Z,89.80
2019-06-27T06:42:13.318Z,89.90
2019-06-27T06:42:44.497Z,89.80
2019-06-27T06:43:15.683Z,89.90